Time,TemperatureF,DewpointF,PressureIn,WindDirection,WindDirectionDegrees,WindSpeedMPH,WindSpeedGustMPH,Humidity,HourlyPrecipIn,Conditions,Clouds,dailyrainin,SolarRadiationWatts/m^2,SoftwareType,DateUTC
2013-04-26 00:02:00,43.0,32.0,-100.00,ESE,114,11.0,17.0,64,0.00,,,0.01,0.000000,,2013-04-26 05:02:00,
2013-04-26 00:11:00,43.0,32.0,-100.00,ESE,116,12.0,19.0,65,0.00,,,0.01,0.000000,,2013-04-26 05:11:00,
2013-04-26 00:32:00,43.0,32.0,-100.00,ESE,116,12.0,19.0,65,0.00,,,0.01,0.000000,,2013-04-26 05:32:00,
2013-04-26 00:42:00,43.0,32.0,-100.00,ESE,116,12.0,19.0,65,0.00,,,0.01,0.000000,,2013-04-26 05:42:00,
2013-04-26 00:52:00,43.0,32.0,-100.00,ESE,116,12.0,19.0,65,0.00,,,0.01,0.000000,,2013-04-26 05:52:00,
2013-04-26 01:02:00,43.0,32.0,-100.00,ESE,116,12.0,19.0,65,0.00,,,0.01,0.000000,,2013-04-26 06:02:00,
2013-04-26 01:11:00,43.0,34.0,-100.00,SE,134,12.0,23.0,69,0.00,,,-99.99,0.000000,,2013-04-26 06:11:00,
2013-04-26 01:32:00,43.0,34.0,-100.00,SE,134,12.0,23.0,69,0.00,,,-99.99,0.000000,,2013-04-26 06:32:00,
2013-04-26 01:42:00,43.0,34.0,-100.00,SE,134,12.0,23.0,69,0.00,,,-99.99,0.000000,,2013-04-26 06:42:00,
2013-04-26 01:52:00,43.0,34.0,-100.00,SE,134,12.0,23.0,69,0.00,,,-99.99,0.000000,,2013-04-26 06:52:00,
2013-04-26 02:01:00,43.0,34.0,-100.00,SE,134,12.0,23.0,69,0.00,,,-99.99,0.000000,,2013-04-26 07:01:00,
2013-04-26 02:11:00,46.0,35.0,-100.00,SSE,153,21.0,31.0,66,0.00,,,0.01,0.000000,,2013-04-26 07:11:00,
2013-04-26 02:32:00,46.0,35.0,-100.00,SSE,153,21.0,31.0,66,0.00,,,0.01,0.000000,,2013-04-26 07:32:00,
2013-04-26 02:42:00,46.0,35.0,-100.00,SSE,153,21.0,31.0,66,0.00,,,0.01,0.000000,,2013-04-26 07:42:00,
2013-04-26 02:52:00,46.0,35.0,-100.00,SSE,153,21.0,31.0,66,0.00,,,0.01,0.000000,,2013-04-26 07:52:00,
2013-04-26 03:02:00,46.0,35.0,-100.00,SSE,153,21.0,31.0,66,0.00,,,0.01,0.000000,,2013-04-26 08:02:00,
2013-04-26 03:11:00,46.0,36.0,-100.00,SSE,158,12.0,25.0,69,0.00,,,0.01,0.000000,,2013-04-26 08:11:00,
2013-04-26 03:32:00,46.0,36.0,-100.00,SSE,158,12.0,25.0,69,0.00,,,0.01,0.000000,,2013-04-26 08:32:00,
2013-04-26 03:42:00,46.0,36.0,-100.00,SSE,158,12.0,25.0,69,0.00,,,0.01,0.000000,,2013-04-26 08:42:00,
2013-04-26 03:52:00,46.0,36.0,-100.00,SSE,158,12.0,25.0,69,0.00,,,0.01,0.000000,,2013-04-26 08:52:00,
2013-04-26 04:01:00,46.0,36.0,-100.00,SSE,158,12.0,25.0,69,0.00,,,0.01,0.000000,,2013-04-26 09:01:00,
2013-04-26 04:11:00,43.0,36.0,-100.00,SSE,157,6.0,14.0,75,0.00,,,0.01,0.000000,,2013-04-26 09:11:00,
2013-04-26 04:33:00,43.0,36.0,-100.00,SSE,157,6.0,14.0,75,0.00,,,0.01,0.000000,,2013-04-26 09:33:00,
2013-04-26 04:43:00,43.0,36.0,-100.00,SSE,157,6.0,14.0,75,0.00,,,0.01,0.000000,,2013-04-26 09:43:00,
2013-04-26 04:53:00,43.0,36.0,-100.00,SSE,157,6.0,14.0,75,0.00,,,0.01,0.000000,,2013-04-26 09:53:00,
2013-04-26 05:03:00,43.0,36.0,-100.00,SSE,157,6.0,14.0,75,0.00,,,0.01,0.000000,,2013-04-26 10:03:00,
2013-04-26 05:11:00,41.0,36.0,-100.00,SSE,151,5.0,10.0,83,0.00,,,0.01,0.000000,,2013-04-26 10:11:00,
2013-04-26 05:33:00,41.0,36.0,-100.00,SSE,151,5.0,10.0,83,0.00,,,0.01,0.000000,,2013-04-26 10:33:00,
2013-04-26 05:42:00,41.0,36.0,-100.00,SSE,151,5.0,10.0,83,0.00,,,0.01,0.000000,,2013-04-26 10:42:00,
2013-04-26 05:52:00,41.0,36.0,-100.00,SSE,151,5.0,10.0,83,0.00,,,0.01,0.000000,,2013-04-26 10:52:00,
2013-04-26 06:02:00,41.0,36.0,-100.00,SSE,151,5.0,10.0,83,0.00,,,0.01,0.000000,,2013-04-26 11:02:00,
2013-04-26 06:11:00,40.0,36.0,-100.00,SSE,161,7.0,9.0,85,0.00,,,0.01,0.000000,,2013-04-26 11:11:00,
2013-04-26 06:32:00,40.0,36.0,-100.00,SSE,161,7.0,9.0,85,0.00,,,0.01,0.000000,,2013-04-26 11:32:00,
2013-04-26 06:42:00,40.0,36.0,-100.00,SSE,161,7.0,9.0,85,0.00,,,0.01,0.000000,,2013-04-26 11:42:00,
2013-04-26 06:52:00,40.0,36.0,-100.00,SSE,161,7.0,9.0,85,0.00,,,0.01,0.000000,,2013-04-26 11:52:00,
2013-04-26 07:01:00,40.0,36.0,-100.00,SSE,161,7.0,9.0,85,0.00,,,0.01,0.000000,,2013-04-26 12:01:00,
2013-04-26 07:11:00,42.0,38.0,-100.00,SSE,163,5.0,8.0,84,0.00,,,-99.99,69.000000,,2013-04-26 12:11:00,
2013-04-26 07:32:00,42.0,38.0,-100.00,SSE,163,5.0,8.0,84,0.00,,,-99.99,69.000000,,2013-04-26 12:32:00,
2013-04-26 07:42:00,42.0,38.0,-100.00,SSE,163,5.0,8.0,84,0.00,,,-99.99,69.000000,,2013-04-26 12:42:00,
2013-04-26 07:52:00,42.0,38.0,-100.00,SSE,163,5.0,8.0,84,0.00,,,-99.99,69.000000,,2013-04-26 12:52:00,
2013-04-26 08:01:00,42.0,38.0,-100.00,SSE,163,5.0,8.0,84,0.00,,,-99.99,69.000000,,2013-04-26 13:01:00,
2013-04-26 08:11:00,48.0,39.0,-100.00,South,186,9.0,12.0,72,0.00,,,0.00,302.000000,,2013-04-26 13:11:00,
2013-04-26 08:32:00,48.0,39.0,-100.00,South,186,9.0,12.0,72,0.00,,,0.00,302.000000,,2013-04-26 13:32:00,
2013-04-26 08:42:00,48.0,39.0,-100.00,South,186,9.0,12.0,72,0.00,,,0.00,302.000000,,2013-04-26 13:42:00,
2013-04-26 08:52:00,48.0,39.0,-100.00,South,186,9.0,12.0,72,0.00,,,0.00,302.000000,,2013-04-26 13:52:00,
2013-04-26 09:01:00,48.0,39.0,-100.00,South,186,9.0,12.0,72,0.00,,,0.00,302.000000,,2013-04-26 14:01:00,
2013-04-26 09:11:00,53.0,39.0,-100.00,SW,229,10.0,15.0,60,0.00,,,0.00,547.000000,,2013-04-26 14:11:00,
2013-04-26 09:42:00,53.0,39.0,-100.00,SW,229,10.0,15.0,60,0.00,,,0.00,547.000000,,2013-04-26 14:42:00,
2013-04-26 09:52:00,53.0,39.0,-100.00,SW,229,10.0,15.0,60,0.00,,,0.00,547.000000,,2013-04-26 14:52:00,
2013-04-26 10:01:00,53.0,39.0,-100.00,SW,229,10.0,15.0,60,0.00,,,0.00,547.000000,,2013-04-26 15:01:00,
2013-04-26 10:11:00,56.0,40.0,-100.00,West,276,9.0,16.0,54,0.00,,,-99.99,753.000000,,2013-04-26 15:11:00,
2013-04-26 10:33:00,56.0,40.0,-100.00,West,276,9.0,16.0,54,0.00,,,-99.99,753.000000,,2013-04-26 15:33:00,
2013-04-26 10:43:00,56.0,40.0,-100.00,West,276,9.0,16.0,54,0.00,,,-99.99,753.000000,,2013-04-26 15:43:00,
2013-04-26 10:53:00,56.0,40.0,-100.00,West,276,9.0,16.0,54,0.00,,,-99.99,753.000000,,2013-04-26 15:53:00,
2013-04-26 11:03:00,56.0,40.0,-100.00,West,276,9.0,16.0,54,0.00,,,-99.99,753.000000,,2013-04-26 16:03:00,
2013-04-26 11:11:00,60.0,40.0,-100.00,NNW,346,9.0,15.0,48,0.00,,,0.00,908.000000,,2013-04-26 16:11:00,
2013-04-26 11:33:00,60.0,40.0,-100.00,NNW,346,9.0,15.0,48,0.00,,,0.00,908.000000,,2013-04-26 16:33:00,
2013-04-26 11:42:00,60.0,40.0,-100.00,NNW,346,9.0,15.0,48,0.00,,,0.00,908.000000,,2013-04-26 16:42:00,
2013-04-26 11:53:00,60.0,40.0,-100.00,NNW,346,9.0,15.0,48,0.00,,,0.00,908.000000,,2013-04-26 16:53:00,
2013-04-26 12:02:00,60.0,40.0,-100.00,NNW,346,9.0,15.0,48,0.00,,,0.00,908.000000,,2013-04-26 17:02:00,
2013-04-26 12:11:00,63.0,40.0,-100.00,NNW,344,7.0,12.0,43,0.00,,,0.00,1016.000000,,2013-04-26 17:11:00,
2013-04-26 12:42:00,63.0,40.0,-100.00,NNW,344,7.0,12.0,43,0.00,,,0.00,1016.000000,,2013-04-26 17:42:00,
2013-04-26 12:52:00,63.0,40.0,-100.00,NNW,344,7.0,12.0,43,0.00,,,0.00,1016.000000,,2013-04-26 17:52:00,
2013-04-26 13:02:00,63.0,40.0,-100.00,NNW,344,7.0,12.0,43,0.00,,,0.00,1016.000000,,2013-04-26 18:02:00,
2013-04-26 13:11:00,66.0,41.0,-100.00,North,356,7.0,13.0,40,0.00,,,0.00,1056.000000,,2013-04-26 18:11:00,
2013-04-26 13:33:00,66.0,41.0,-100.00,North,356,7.0,13.0,40,0.00,,,0.00,1056.000000,,2013-04-26 18:33:00,
2013-04-26 13:42:00,66.0,41.0,-100.00,North,356,7.0,13.0,40,0.00,,,0.00,1056.000000,,2013-04-26 18:42:00,
2013-04-26 13:52:00,66.0,41.0,-100.00,North,356,7.0,13.0,40,0.00,,,0.00,1056.000000,,2013-04-26 18:52:00,
2013-04-26 14:01:00,66.0,41.0,-100.00,North,356,7.0,13.0,40,0.00,,,0.00,1056.000000,,2013-04-26 19:01:00,
2013-04-26 14:11:00,69.0,39.0,-100.00,NW,306,6.0,11.0,34,0.00,,,0.00,1004.000000,,2013-04-26 19:11:00,
2013-04-26 14:32:00,69.0,39.0,-100.00,NW,306,6.0,11.0,34,0.00,,,0.00,1004.000000,,2013-04-26 19:32:00,
2013-04-26 14:42:00,69.0,39.0,-100.00,NW,306,6.0,11.0,34,0.00,,,0.00,1004.000000,,2013-04-26 19:42:00,
2013-04-26 14:52:00,69.0,39.0,-100.00,NW,306,6.0,11.0,34,0.00,,,0.00,1004.000000,,2013-04-26 19:52:00,
2013-04-26 15:02:00,69.0,39.0,-100.00,NW,306,6.0,11.0,34,0.00,,,0.00,1004.000000,,2013-04-26 20:02:00,
2013-04-26 15:11:00,70.0,39.0,-100.00,NNW,332,9.0,15.0,32,0.00,,,0.00,954.000000,,2013-04-26 20:11:00,
2013-04-26 15:42:00,70.0,39.0,-100.00,NNW,332,9.0,15.0,32,0.00,,,0.00,954.000000,,2013-04-26 20:42:00,
2013-04-26 15:52:00,70.0,39.0,-100.00,NNW,332,9.0,15.0,32,0.00,,,0.00,954.000000,,2013-04-26 20:52:00,
2013-04-26 16:02:00,70.0,39.0,-100.00,NNW,332,9.0,15.0,32,0.00,,,0.00,954.000000,,2013-04-26 21:02:00,
2013-04-26 16:11:00,72.0,37.0,-100.00,West,281,8.0,15.0,28,0.00,,,0.00,733.000000,,2013-04-26 21:11:00,
2013-04-26 16:33:00,72.0,37.0,-100.00,West,281,8.0,15.0,28,0.00,,,0.00,733.000000,,2013-04-26 21:33:00,
2013-04-26 16:42:00,72.0,37.0,-100.00,West,281,8.0,15.0,28,0.00,,,0.00,733.000000,,2013-04-26 21:42:00,
2013-04-26 16:53:00,72.0,37.0,-100.00,West,281,8.0,15.0,28,0.00,,,0.00,733.000000,,2013-04-26 21:53:00,
2013-04-26 17:02:00,72.0,37.0,-100.00,West,281,8.0,15.0,28,0.00,,,0.00,733.000000,,2013-04-26 22:02:00,
2013-04-26 17:11:00,68.0,40.0,-100.00,NW,321,12.0,18.0,36,0.00,,,0.00,517.000000,,2013-04-26 22:11:00,
2013-04-26 17:33:00,68.0,40.0,-100.00,NW,321,12.0,18.0,36,0.00,,,0.00,517.000000,,2013-04-26 22:33:00,
2013-04-26 17:42:00,68.0,40.0,-100.00,NW,321,12.0,18.0,36,0.00,,,0.00,517.000000,,2013-04-26 22:42:00,
2013-04-26 17:52:00,68.0,40.0,-100.00,NW,321,12.0,18.0,36,0.00,,,0.00,517.000000,,2013-04-26 22:52:00,
2013-04-26 18:02:00,68.0,40.0,-100.00,NW,321,12.0,18.0,36,0.00,,,0.00,517.000000,,2013-04-26 23:02:00,
2013-04-26 18:11:00,68.0,32.0,-100.00,NW,325,11.0,19.0,26,0.00,,,0.00,406.000000,,2013-04-26 23:11:00,
2013-04-26 18:32:00,68.0,32.0,-100.00,NW,325,11.0,19.0,26,0.00,,,0.00,406.000000,,2013-04-26 23:32:00,
2013-04-26 18:42:00,68.0,32.0,-100.00,NW,325,11.0,19.0,26,0.00,,,0.00,406.000000,,2013-04-26 23:42:00,
2013-04-26 18:52:00,68.0,32.0,-100.00,NW,325,11.0,19.0,26,0.00,,,0.00,406.000000,,2013-04-26 23:52:00,
2013-04-26 19:01:00,68.0,32.0,-100.00,NW,325,11.0,19.0,26,0.00,,,0.00,406.000000,,2013-04-27 00:01:00,
2013-04-26 19:11:00,65.0,34.0,-100.00,NW,320,10.0,16.0,32,0.00,,,0.00,195.000000,,2013-04-27 00:11:00,
2013-04-26 19:32:00,65.0,34.0,-100.00,NW,320,10.0,16.0,32,0.00,,,0.00,195.000000,,2013-04-27 00:32:00,
2013-04-26 19:42:00,65.0,34.0,-100.00,NW,320,10.0,16.0,32,0.00,,,0.00,195.000000,,2013-04-27 00:42:00,
2013-04-26 19:52:00,65.0,34.0,-100.00,NW,320,10.0,16.0,32,0.00,,,0.00,195.000000,,2013-04-27 00:52:00,
2013-04-26 20:01:00,65.0,34.0,-100.00,NW,320,10.0,16.0,32,0.00,,,0.00,195.000000,,2013-04-27 01:01:00,
2013-04-26 20:11:00,57.0,38.0,-100.00,NW,314,6.0,11.0,49,0.00,,,0.00,36.000000,,2013-04-27 01:11:00,
2013-04-26 20:42:00,57.0,38.0,-100.00,NW,314,6.0,11.0,49,0.00,,,0.00,36.000000,,2013-04-27 01:42:00,
2013-04-26 20:52:00,57.0,38.0,-100.00,NW,314,6.0,11.0,49,0.00,,,0.00,36.000000,,2013-04-27 01:52:00,
2013-04-26 21:01:00,57.0,38.0,-100.00,NW,314,6.0,11.0,49,0.00,,,0.00,36.000000,,2013-04-27 02:01:00,
2013-04-26 21:11:00,52.0,37.0,-100.00,NW,305,5.0,7.0,57,0.00,,,0.00,2.000000,,2013-04-27 02:11:00,
2013-04-26 21:42:00,52.0,37.0,-100.00,NW,305,5.0,7.0,57,0.00,,,0.00,2.000000,,2013-04-27 02:42:00,
2013-04-26 21:52:00,52.0,37.0,-100.00,NW,305,5.0,7.0,57,0.00,,,0.00,2.000000,,2013-04-27 02:52:00,
2013-04-26 22:02:00,52.0,37.0,-100.00,NW,305,5.0,7.0,57,0.00,,,0.00,2.000000,,2013-04-27 03:02:00,
2013-04-26 22:11:00,51.0,38.0,-100.00,West,275,3.0,6.0,61,0.00,,,0.00,0.000000,,2013-04-27 03:11:00,
2013-04-26 22:43:00,51.0,38.0,-100.00,West,275,3.0,6.0,61,0.00,,,0.00,0.000000,,2013-04-27 03:43:00,
2013-04-26 22:53:00,51.0,38.0,-100.00,West,275,3.0,6.0,61,0.00,,,0.00,0.000000,,2013-04-27 03:53:00,
2013-04-26 23:03:00,51.0,38.0,-100.00,West,275,3.0,6.0,61,0.00,,,0.00,0.000000,,2013-04-27 04:03:00,
2013-04-26 23:11:00,44.0,36.0,-100.00,WSW,239,2.0,4.0,72,0.00,,,0.00,0.000000,,2013-04-27 04:11:00,
2013-04-26 23:43:00,44.0,36.0,-100.00,WSW,239,2.0,4.0,72,0.00,,,0.00,0.000000,,2013-04-27 04:43:00,
2013-04-26 23:53:00,44.0,36.0,-100.00,WSW,239,2.0,4.0,72,0.00,,,0.00,0.000000,,2013-04-27 04:53:00,